createdAt,value
2022-09-07T00:00:37.803Z,0.00
2022-09-07T00:01:37.794Z,0.00
2022-09-07T00:02:37.846Z,0.00
2022-09-07T00:03:37.774Z,0.00
2022-09-07T00:04:37.834Z,0.00
2022-09-07T00:05:37.739Z,0.00
2022-09-07T00:06:37.755Z,0.00
2022-09-07T00:07:37.711Z,0.00
2022-09-07T00:08:37.725Z,0.00
2022-09-07T00:09:37.696Z,0.00
2022-09-07T00:10:37.678Z,0.00
2022-09-07T00:11:37.667Z,0.00
2022-09-07T00:12:37.680Z,0.00
2022-09-07T00:13:37.638Z,0.00
2022-09-07T00:14:37.636Z,0.00
2022-09-07T00:15:37.616Z,0.00
2022-09-07T00:16:37.666Z,0.00
2022-09-07T00:17:37.594Z,0.00
2022-09-07T00:18:39.505Z,0.00
2022-09-07T00:19:37.562Z,0.00
2022-09-07T00:20:37.574Z,0.00
2022-09-07T00:21:37.545Z,0.00
2022-09-07T00:22:37.547Z,0.00
2022-09-07T00:23:37.513Z,0.00
2022-09-07T00:24:37.499Z,0.00
2022-09-07T00:25:37.487Z,0.00
2022-09-07T00:26:37.485Z,0.00
2022-09-07T00:27:37.614Z,0.00
2022-09-07T00:28:37.453Z,0.00
2022-09-07T00:29:37.601Z,0.00
2022-09-07T00:30:37.429Z,0.00
2022-09-07T00:31:37.507Z,0.00
2022-09-07T00:32:37.416Z,0.00
2022-09-07T00:33:37.393Z,0.00
2022-09-07T00:34:37.378Z,0.00
2022-09-07T00:35:37.364Z,0.00
2022-09-07T00:36:37.363Z,0.00
2022-09-07T00:37:37.343Z,0.00
2022-09-07T00:38:37.342Z,0.00
2022-09-07T00:39:37.352Z,0.00
2022-09-07T00:40:37.325Z,0.00
2022-09-07T00:41:37.288Z,0.00
2022-09-07T00:42:37.281Z,0.00
2022-09-07T00:43:37.274Z,0.00
2022-09-07T00:44:37.269Z,0.00
2022-09-07T00:45:37.243Z,0.00
2022-09-07T00:46:37.280Z,0.00
2022-09-07T00:47:37.221Z,0.00
2022-09-07T00:48:37.212Z,0.00
2022-09-07T00:49:37.198Z,0.00
2022-09-07T00:50:37.189Z,0.00
2022-09-07T00:51:37.184Z,0.00
2022-09-07T00:52:37.188Z,0.00
2022-09-07T00:53:37.186Z,0.00
2022-09-07T00:54:37.130Z,0.00
2022-09-07T00:55:37.118Z,0.00
2022-09-07T00:56:37.145Z,0.00
2022-09-07T00:57:37.104Z,0.00
2022-09-07T00:58:37.082Z,0.00
2022-09-07T00:59:37.090Z,0.00
2022-09-07T01:00:37.058Z,0.00
2022-09-07T01:01:37.148Z,0.00
2022-09-07T01:02:37.201Z,0.00
2022-09-07T01:03:37.022Z,0.00
2022-09-07T01:04:37.024Z,0.00
2022-09-07T01:05:37.006Z,0.00
2022-09-07T01:06:36.989Z,0.00
2022-09-07T01:07:36.967Z,0.00
2022-09-07T01:08:36.973Z,0.00
2022-09-07T01:09:36.953Z,0.00
2022-09-07T01:10:36.946Z,0.00
2022-09-07T01:11:36.927Z,0.00
2022-09-07T01:12:36.941Z,0.00
2022-09-07T01:13:36.902Z,0.00
2022-09-07T01:14:36.898Z,0.00
2022-09-07T01:15:36.909Z,0.00
2022-09-07T01:16:36.862Z,0.00
2022-09-07T01:17:36.863Z,0.00
2022-09-07T01:18:36.836Z,0.00
2022-09-07T01:19:36.829Z,0.00
2022-09-07T01:20:36.823Z,0.00
2022-09-07T01:21:36.796Z,0.00
2022-09-07T01:22:36.795Z,0.00
2022-09-07T01:23:36.773Z,0.00
2022-09-07T01:24:36.758Z,0.00
2022-09-07T01:25:36.751Z,0.00
2022-09-07T01:26:36.744Z,0.00
2022-09-07T01:27:36.746Z,0.00
2022-09-07T01:28:36.709Z,0.00
2022-09-07T01:29:36.696Z,0.00
2022-09-07T01:30:36.697Z,0.00
2022-09-07T01:31:36.738Z,0.00
2022-09-07T01:32:36.700Z,0.00
2022-09-07T01:33:36.655Z,0.00
2022-09-07T01:34:36.646Z,0.00
2022-09-07T01:35:36.627Z,0.00
2022-09-07T01:36:36.611Z,0.00
2022-09-07T01:37:36.603Z,0.00
2022-09-07T01:38:36.597Z,0.00
2022-09-07T01:39:36.650Z,0.00
2022-09-07T01:40:36.564Z,0.00
2022-09-07T01:41:36.551Z,0.00
2022-09-07T01:42:36.545Z,0.00
2022-09-07T01:43:36.540Z,0.00
2022-09-07T01:44:36.527Z,0.00
2022-09-07T01:45:36.511Z,0.00
2022-09-07T01:46:36.538Z,0.00
2022-09-07T01:47:36.483Z,0.00
2022-09-07T01:48:36.465Z,0.00
2022-09-07T01:49:36.456Z,0.00
2022-09-07T01:50:36.463Z,0.00
2022-09-07T01:51:36.438Z,0.00
2022-09-07T01:52:36.423Z,0.00
2022-09-07T01:53:36.402Z,0.00
2022-09-07T01:54:36.389Z,0.00
2022-09-07T01:55:36.389Z,0.00
2022-09-07T01:56:36.386Z,0.00
2022-09-07T01:57:36.350Z,0.00
2022-09-07T01:58:36.340Z,0.00
2022-09-07T01:59:36.326Z,0.00
2022-09-07T02:00:36.315Z,0.00
2022-09-07T02:01:36.399Z,0.00
2022-09-07T02:02:36.398Z,0.00
2022-09-07T02:03:36.275Z,0.00
2022-09-07T02:04:36.269Z,0.00
2022-09-07T02:05:36.254Z,0.00
2022-09-07T02:06:36.242Z,0.00
2022-09-07T02:07:36.247Z,0.00
2022-09-07T02:08:36.232Z,0.00
2022-09-07T02:09:36.206Z,0.00
2022-09-07T02:10:36.197Z,0.00
2022-09-07T02:11:36.181Z,0.00
2022-09-07T02:12:36.178Z,0.00
2022-09-07T02:13:36.154Z,0.00
2022-09-07T02:14:36.156Z,0.00
2022-09-07T02:15:36.197Z,0.00
2022-09-07T02:16:36.114Z,0.00
2022-09-07T02:17:36.128Z,0.00
2022-09-07T02:18:36.097Z,0.00
2022-09-07T02:19:36.081Z,0.00
2022-09-07T02:20:36.082Z,0.00
2022-09-07T02:21:36.056Z,0.00
2022-09-07T02:22:36.070Z,0.00
2022-09-07T02:23:36.036Z,0.00
2022-09-07T02:24:36.021Z,0.00
2022-09-07T02:25:36.005Z,0.00
2022-09-07T02:26:36.000Z,0.00
2022-09-07T02:27:35.981Z,0.00
2022-09-07T02:28:35.968Z,0.00
2022-09-07T02:29:35.969Z,0.00
2022-09-07T02:30:35.947Z,0.00
2022-09-07T02:31:35.971Z,0.00
2022-09-07T02:32:35.956Z,0.00
2022-09-07T02:33:35.917Z,0.00
2022-09-07T02:34:35.906Z,0.00
2022-09-07T02:35:35.878Z,0.00
2022-09-07T02:36:35.890Z,0.00
2022-09-07T02:37:35.856Z,0.00
2022-09-07T02:38:35.855Z,0.00
2022-09-07T02:39:35.889Z,0.00
2022-09-07T02:40:35.846Z,0.00
2022-09-07T02:41:35.810Z,0.00
2022-09-07T02:42:35.797Z,0.00
2022-09-07T02:43:35.783Z,0.00
2022-09-07T02:44:35.787Z,0.00
2022-09-07T02:45:35.767Z,0.00
2022-09-07T02:46:35.830Z,0.00
2022-09-07T02:47:35.741Z,0.00
2022-09-07T02:48:35.721Z,0.00
2022-09-07T02:49:35.728Z,0.00
2022-09-07T02:50:35.706Z,0.00
2022-09-07T02:51:35.686Z,0.00
2022-09-07T02:52:35.673Z,0.00
2022-09-07T02:53:35.682Z,0.00
2022-09-07T02:54:35.648Z,0.00
2022-09-07T02:55:35.637Z,0.00
2022-09-07T02:56:35.629Z,0.00
2022-09-07T02:57:35.616Z,0.00
2022-09-07T02:58:35.620Z,0.00
2022-09-07T02:59:35.587Z,0.00
2022-09-07T03:00:35.573Z,0.00
2022-09-07T03:01:35.665Z,0.00
2022-09-07T03:02:35.610Z,0.00
2022-09-07T03:03:35.537Z,0.00
2022-09-07T03:04:35.535Z,0.00
2022-09-07T03:05:35.517Z,0.00
2022-09-07T03:06:35.505Z,0.00
2022-09-07T03:07:36.085Z,0.00
2022-09-07T03:08:35.487Z,0.00
2022-09-07T03:09:35.456Z,0.00
2022-09-07T03:10:35.449Z,0.00
2022-09-07T03:11:35.434Z,0.00
2022-09-07T03:12:35.436Z,0.00
2022-09-07T03:13:35.414Z,0.00
2022-09-07T03:14:35.415Z,0.00
2022-09-07T03:15:35.395Z,0.00
2022-09-07T03:16:35.373Z,0.00
2022-09-07T03:17:35.362Z,0.00
2022-09-07T03:18:35.349Z,0.00
2022-09-07T03:19:35.333Z,0.00
2022-09-07T03:20:35.330Z,0.00
2022-09-07T03:21:35.308Z,0.00
2022-09-07T03:22:35.293Z,0.00
2022-09-07T03:23:35.293Z,0.00
2022-09-07T03:24:35.284Z,0.00
2022-09-07T03:25:35.271Z,0.00
2022-09-07T03:26:35.261Z,0.00
2022-09-07T03:27:35.243Z,0.00
2022-09-07T03:28:35.225Z,0.00
2022-09-07T03:29:37.341Z,0.00
2022-09-07T03:30:35.307Z,0.00
2022-09-07T03:31:35.186Z,0.00
2022-09-07T03:32:35.180Z,0.00
2022-09-07T03:33:35.153Z,0.00
2022-09-07T03:34:35.144Z,0.00
2022-09-07T03:35:35.207Z,0.00
2022-09-07T03:36:35.115Z,0.00
2022-09-07T03:37:35.123Z,0.00
2022-09-07T03:38:35.198Z,0.00
2022-09-07T03:39:35.130Z,0.00
2022-09-07T03:40:35.068Z,0.00
2022-09-07T03:41:35.060Z,0.00
2022-09-07T03:42:35.059Z,0.00
2022-09-07T03:43:35.041Z,0.00
2022-09-07T03:44:35.028Z,0.00
2022-09-07T03:45:35.035Z,0.00
2022-09-07T03:46:34.994Z,0.00
2022-09-07T03:47:34.981Z,0.00
2022-09-07T03:48:34.972Z,0.00
2022-09-07T03:49:34.961Z,0.00
2022-09-07T03:50:34.980Z,0.00
2022-09-07T03:51:34.952Z,0.00
2022-09-07T03:52:34.916Z,0.00
2022-09-07T03:53:34.930Z,0.00
2022-09-07T03:54:37.808Z,0.00
2022-09-07T03:55:34.888Z,0.00
2022-09-07T03:56:34.887Z,0.00
2022-09-07T03:57:34.856Z,0.00
2022-09-07T03:58:34.858Z,0.00
2022-09-07T03:59:34.840Z,0.00
2022-09-07T04:00:34.826Z,0.00
2022-09-07T04:01:34.857Z,0.00
2022-09-07T04:02:34.916Z,0.00
2022-09-07T04:03:34.781Z,0.00
2022-09-07T04:04:34.769Z,0.00
2022-09-07T04:05:34.761Z,0.00
2022-09-07T04:06:34.745Z,0.00
2022-09-07T04:07:34.732Z,0.00
2022-09-07T04:08:34.871Z,0.00
2022-09-07T04:09:34.706Z,0.00
2022-09-07T04:10:34.693Z,0.00
2022-09-07T04:11:34.687Z,0.00
2022-09-07T04:12:34.671Z,0.00
2022-09-07T04:13:34.661Z,0.00
2022-09-07T04:14:34.653Z,0.00
2022-09-07T04:15:34.634Z,0.00
2022-09-07T04:16:34.725Z,0.00
2022-09-07T04:17:34.620Z,0.00
2022-09-07T04:18:34.601Z,0.00
2022-09-07T04:19:34.592Z,0.00
2022-09-07T04:20:34.605Z,0.00
2022-09-07T04:21:34.555Z,0.00
2022-09-07T04:22:34.546Z,0.00
2022-09-07T04:23:34.579Z,0.00
2022-09-07T04:24:34.524Z,0.00
2022-09-07T04:25:34.512Z,0.00
2022-09-07T04:26:34.525Z,0.00
2022-09-07T04:27:34.483Z,0.00
2022-09-07T04:28:34.495Z,0.00
2022-09-07T04:29:34.460Z,0.00
2022-09-07T04:30:34.495Z,0.00
2022-09-07T04:31:34.436Z,0.00
2022-09-07T04:32:34.462Z,0.00
2022-09-07T04:33:34.409Z,0.00
2022-09-07T04:34:34.414Z,0.00
2022-09-07T04:35:34.394Z,0.00
2022-09-07T04:36:34.375Z,0.00
2022-09-07T04:37:34.319Z,1.00
2022-09-07T04:38:34.319Z,1.00
2022-09-07T04:39:34.337Z,1.00
2022-09-07T04:40:34.271Z,1.00
2022-09-07T04:41:34.265Z,1.00
2022-09-07T04:42:34.244Z,2.00
2022-09-07T04:43:34.245Z,2.00
2022-09-07T04:44:34.227Z,2.00
2022-09-07T04:45:34.240Z,2.00
2022-09-07T04:46:34.201Z,3.00
2022-09-07T04:47:34.197Z,3.00
2022-09-07T04:48:34.170Z,5.00
2022-09-07T04:49:34.160Z,5.00
2022-09-07T04:50:34.159Z,6.00
2022-09-07T04:51:34.146Z,6.00
2022-09-07T04:52:34.122Z,8.00
2022-09-07T04:53:34.108Z,8.00
2022-09-07T04:54:34.118Z,8.00
2022-09-07T04:55:34.091Z,9.00
2022-09-07T04:56:34.090Z,9.00
2022-09-07T04:57:34.061Z,10.00
2022-09-07T04:58:34.048Z,12.00
2022-09-07T04:59:34.038Z,13.00
2022-09-07T05:00:34.024Z,14.00
2022-09-07T05:01:34.059Z,15.00
2022-09-07T05:02:34.091Z,18.00
2022-09-07T05:03:33.989Z,17.00
2022-09-07T05:04:34.001Z,18.00
2022-09-07T05:05:33.964Z,20.00
2022-09-07T05:06:33.948Z,21.00
2022-09-07T05:07:33.971Z,20.00
2022-09-07T05:08:33.936Z,22.00
2022-09-07T05:09:33.936Z,23.00
2022-09-07T05:10:33.898Z,26.00
2022-09-07T05:11:33.889Z,25.00
2022-09-07T05:12:33.887Z,27.00
2022-09-07T05:13:33.859Z,28.00
2022-09-07T05:14:33.853Z,30.00
2022-09-07T05:15:33.833Z,32.00
2022-09-07T05:16:33.878Z,35.00
2022-09-07T05:17:33.828Z,34.00
2022-09-07T05:18:33.802Z,36.00
2022-09-07T05:19:33.787Z,37.00
2022-09-07T05:20:33.800Z,39.00
2022-09-07T05:21:33.755Z,40.00
2022-09-07T05:22:33.746Z,43.00
2022-09-07T05:23:33.747Z,43.00
2022-09-07T05:24:33.725Z,45.00
2022-09-07T05:25:33.707Z,47.00
2022-09-07T05:26:33.707Z,47.00
2022-09-07T05:27:33.682Z,50.00
2022-09-07T05:28:33.846Z,52.00
2022-09-07T05:31:33.646Z,55.00
2022-09-07T05:32:33.628Z,56.00
2022-09-07T05:34:33.668Z,59.00
2022-09-07T05:35:33.586Z,59.00
2022-09-07T05:36:33.732Z,61.00
2022-09-07T05:37:33.567Z,61.00
2022-09-07T05:38:33.574Z,66.00
2022-09-07T05:39:33.584Z,67.00
2022-09-07T05:40:37.205Z,67.00
2022-09-07T05:41:33.512Z,67.00
2022-09-07T05:42:33.529Z,69.00
2022-09-07T05:43:33.496Z,69.00
2022-09-07T05:44:48.859Z,69.00
2022-09-07T05:45:33.496Z,70.00
2022-09-07T05:46:33.461Z,71.00
2022-09-07T05:47:33.434Z,71.00
2022-09-07T05:48:33.419Z,73.00
2022-09-07T05:49:33.414Z,74.00
2022-09-07T05:50:33.436Z,77.00
2022-09-07T05:51:33.382Z,80.00
2022-09-07T05:52:33.370Z,83.00
2022-09-07T05:53:33.367Z,85.00
2022-09-07T05:54:33.381Z,88.00
2022-09-07T05:55:33.336Z,90.00
2022-09-07T05:56:33.333Z,96.00
2022-09-07T05:57:33.311Z,100.00
2022-09-07T05:58:33.312Z,111.00
2022-09-07T05:59:33.323Z,118.00
2022-09-07T06:00:33.271Z,122.00
2022-09-07T06:01:33.263Z,126.00
2022-09-07T06:02:36.503Z,124.00
2022-09-07T06:03:33.279Z,124.00
2022-09-07T06:04:33.222Z,125.00
2022-09-07T06:05:33.238Z,128.00
2022-09-07T06:06:33.195Z,129.00
2022-09-07T06:07:33.189Z,129.00
2022-09-07T06:08:33.183Z,127.00
2022-09-07T06:09:33.232Z,198.00
2022-09-07T06:10:48.417Z,193.00
2022-09-07T06:11:33.139Z,191.00
2022-09-07T06:12:33.130Z,202.00
2022-09-07T06:13:33.106Z,205.00
2022-09-07T06:14:33.118Z,198.00
2022-09-07T06:15:33.088Z,193.00
2022-09-07T06:16:33.147Z,194.00
2022-09-07T06:17:33.058Z,190.00
2022-09-07T06:18:33.051Z,188.00
2022-09-07T06:19:33.039Z,191.00
2022-09-07T06:20:33.031Z,191.00
2022-09-07T06:21:33.009Z,186.00
2022-09-07T06:22:32.997Z,183.00
2022-09-07T06:23:32.985Z,178.00
2022-09-07T06:24:32.973Z,172.00
2022-09-07T06:25:32.959Z,169.00
2022-09-07T06:26:33.712Z,171.00
2022-09-07T06:27:32.936Z,175.00
2022-09-07T06:28:32.933Z,182.00
2022-09-07T06:29:32.918Z,192.00
2022-09-07T06:30:32.898Z,201.00
2022-09-07T06:31:32.922Z,204.00
2022-09-07T06:33:33.027Z,215.00
2022-09-07T06:34:32.854Z,228.00
2022-09-07T06:35:32.838Z,239.00
2022-09-07T06:36:32.826Z,246.00
2022-09-07T06:37:32.808Z,243.00
2022-09-07T06:38:32.806Z,242.00
2022-09-07T06:39:32.826Z,239.00
2022-09-07T06:40:32.776Z,248.00
2022-09-07T06:42:32.746Z,291.00
2022-09-07T06:43:32.728Z,315.00
2022-09-07T06:44:32.760Z,331.00
2022-09-07T06:45:32.731Z,318.00
2022-09-07T06:47:32.690Z,310.00
2022-09-07T06:48:32.978Z,322.00
2022-09-07T06:49:32.657Z,341.00
2022-09-07T06:50:32.664Z,347.00
2022-09-07T06:51:32.657Z,352.00
2022-09-07T06:53:36.759Z,354.00
2022-09-07T06:55:32.600Z,362.00
2022-09-07T06:56:32.589Z,336.00
2022-09-07T06:57:32.577Z,310.00
2022-09-07T06:58:32.661Z,314.00
2022-09-07T06:59:32.531Z,340.00
2022-09-07T07:00:32.544Z,370.00
2022-09-07T07:01:32.573Z,375.00
2022-09-07T07:02:32.505Z,385.00
2022-09-07T07:03:32.556Z,399.00
2022-09-07T07:04:36.292Z,393.00
2022-09-07T07:05:32.468Z,393.00
2022-09-07T07:06:32.547Z,411.00
2022-09-07T07:07:32.433Z,426.00
2022-09-07T07:08:32.530Z,433.00
2022-09-07T07:09:32.405Z,440.00
2022-09-07T07:10:32.404Z,452.00
2022-09-07T07:11:32.417Z,459.00
2022-09-07T07:13:02.604Z,458.00
2022-09-07T07:14:03.588Z,414.00
2022-09-07T07:15:03.566Z,368.00
2022-09-07T07:16:03.612Z,385.00
2022-09-07T07:17:03.544Z,380.00
2022-09-07T07:18:19.581Z,480.00
2022-09-07T07:19:03.574Z,468.00
2022-09-07T07:20:03.513Z,462.00
2022-09-07T07:21:03.487Z,491.00
2022-09-07T07:23:03.488Z,408.00
2022-09-07T07:24:07.936Z,522.00
2022-09-07T07:25:03.566Z,481.00
2022-09-07T07:26:03.454Z,548.00
2022-09-07T07:27:03.411Z,550.00
2022-09-07T07:29:04.135Z,486.00
2022-09-07T07:30:03.397Z,386.00
2022-09-07T07:31:07.340Z,387.00
2022-09-07T07:32:03.379Z,389.00
2022-09-07T07:33:03.367Z,391.00
2022-09-07T07:34:03.360Z,396.00
2022-09-07T07:35:03.468Z,394.00
2022-09-07T07:36:03.303Z,383.00
2022-09-07T07:37:03.282Z,374.00
2022-09-07T07:39:03.440Z,366.00
2022-09-07T07:40:21.315Z,365.00
2022-09-07T07:42:05.568Z,355.00
2022-09-07T07:43:03.217Z,354.00
2022-09-07T07:44:03.243Z,349.00
2022-09-07T07:46:05.592Z,329.00
2022-09-07T07:47:03.341Z,304.00
2022-09-07T07:48:03.182Z,283.00
2022-09-07T07:49:03.125Z,277.00
2022-09-07T07:51:09.829Z,295.00
2022-09-07T07:54:03.072Z,320.00
2022-09-07T07:55:42.821Z,328.00
2022-09-07T07:56:03.064Z,337.00
2022-09-07T07:57:03.034Z,341.00
2022-09-07T07:58:03.014Z,342.00
2022-09-07T07:59:03.009Z,336.00
2022-09-07T08:00:02.997Z,323.00
2022-09-07T08:01:03.095Z,304.00
2022-09-07T08:02:03.149Z,296.00
2022-09-07T08:03:02.958Z,295.00
2022-09-07T08:04:02.956Z,294.00
2022-09-07T08:05:02.929Z,308.00
2022-09-07T08:06:02.929Z,313.00
2022-09-07T08:07:08.715Z,318.00
2022-09-07T08:08:02.912Z,332.00
2022-09-07T08:09:02.919Z,341.00
2022-09-07T08:10:02.877Z,345.00
2022-09-07T08:11:02.859Z,332.00
2022-09-07T08:12:02.837Z,331.00
2022-09-07T08:13:02.876Z,371.00
2022-09-07T08:14:02.847Z,394.00
2022-09-07T08:15:02.840Z,418.00
2022-09-07T08:16:02.866Z,435.00
2022-09-07T08:17:02.811Z,426.00
2022-09-07T08:18:02.796Z,407.00
2022-09-07T08:19:02.819Z,426.00
2022-09-07T08:20:02.757Z,433.00
2022-09-07T08:21:02.741Z,418.00
2022-09-07T08:22:02.710Z,411.00
2022-09-07T08:23:02.704Z,409.00
2022-09-07T08:24:02.686Z,412.00
2022-09-07T08:25:02.673Z,418.00
2022-09-07T08:26:02.688Z,425.00
2022-09-07T08:27:02.654Z,436.00
2022-09-07T08:28:02.665Z,432.00
2022-09-07T08:29:02.648Z,424.00
2022-09-07T08:30:02.625Z,408.00
2022-09-07T08:31:02.604Z,390.00
2022-09-07T08:32:02.654Z,360.00
2022-09-07T08:33:02.585Z,328.00
2022-09-07T08:34:02.562Z,298.00
2022-09-07T08:35:02.547Z,272.00
2022-09-07T08:36:02.540Z,255.00
2022-09-07T08:37:02.525Z,247.00
2022-09-07T08:38:02.537Z,243.00
2022-09-07T08:39:02.498Z,244.00
2022-09-07T08:40:02.540Z,255.00
2022-09-07T08:41:02.480Z,287.00
2022-09-07T08:42:02.465Z,325.00
2022-09-07T08:43:02.448Z,368.00
2022-09-07T08:44:02.469Z,413.00
2022-09-07T08:45:02.440Z,477.00
2022-09-07T08:46:02.408Z,555.00
2022-09-07T08:47:02.471Z,556.00
2022-09-07T08:48:02.399Z,553.00
2022-09-07T08:49:02.381Z,584.00
2022-09-07T08:50:02.379Z,576.00
2022-09-07T08:51:02.342Z,569.00
2022-09-07T08:52:02.335Z,557.00
2022-09-07T08:53:02.328Z,526.00
2022-09-07T08:54:02.303Z,522.00
2022-09-07T08:55:02.298Z,566.00
2022-09-07T08:56:02.297Z,589.00
2022-09-07T08:58:02.263Z,631.00
2022-09-07T08:59:02.249Z,588.00
2022-09-07T09:00:02.242Z,540.00
2022-09-07T09:04:18.822Z,558.00
2022-09-07T09:05:18.461Z,596.00
2022-09-07T09:06:02.304Z,643.00
2022-09-07T09:07:02.355Z,641.00
2022-09-07T09:08:02.155Z,647.00
2022-09-07T09:09:02.118Z,604.00
2022-09-07T09:10:02.124Z,539.00
2022-09-07T09:11:02.097Z,531.00
2022-09-07T09:12:02.085Z,524.00
2022-09-07T09:13:02.071Z,507.00
2022-09-07T09:14:02.079Z,505.00
2022-09-07T09:15:02.045Z,506.00
2022-09-07T09:16:02.100Z,516.00
2022-09-07T09:17:02.025Z,535.00
2022-09-07T09:18:02.014Z,543.00
2022-09-07T09:19:01.995Z,536.00
2022-09-07T09:20:02.013Z,523.00
2022-09-07T09:21:01.975Z,509.00
2022-09-07T09:22:01.980Z,497.00
2022-09-07T09:23:01.948Z,493.00
2022-09-07T09:24:01.934Z,489.00
2022-09-07T09:25:01.941Z,485.00
2022-09-07T09:26:01.935Z,476.00
2022-09-07T09:27:01.895Z,472.00
2022-09-07T09:28:01.882Z,461.00
2022-09-07T09:29:01.897Z,443.00
2022-09-07T09:30:01.858Z,428.00
2022-09-07T09:31:01.915Z,395.00
2022-09-07T09:32:01.851Z,354.00
2022-09-07T09:33:01.830Z,339.00
2022-09-07T09:34:01.816Z,369.00
2022-09-07T09:35:01.803Z,360.00
2022-09-07T09:36:01.783Z,333.00
2022-09-07T09:37:01.795Z,362.00
2022-09-07T09:38:01.778Z,424.00
2022-09-07T09:39:01.748Z,477.00
2022-09-07T09:40:02.973Z,505.00
2022-09-07T09:41:01.726Z,488.00
2022-09-07T09:42:01.709Z,485.00
2022-09-07T09:43:01.696Z,502.00
2022-09-07T09:44:01.702Z,535.00
2022-09-07T09:45:01.687Z,586.00
2022-09-07T09:46:16.922Z,598.00
2022-09-07T09:48:01.696Z,524.00
2022-09-07T09:49:01.626Z,509.00
2022-09-07T09:50:01.621Z,526.00
2022-09-07T09:53:01.581Z,529.00
2022-09-07T09:54:01.573Z,512.00
2022-09-07T09:56:01.557Z,425.00
2022-09-07T09:57:01.531Z,374.00
2022-09-07T09:59:05.103Z,521.00
2022-09-07T10:00:05.546Z,517.00
2022-09-07T10:04:04.623Z,503.00
2022-09-07T10:05:01.434Z,528.00
2022-09-07T10:06:01.427Z,515.00
2022-09-07T10:07:01.405Z,514.00
2022-09-07T10:08:01.422Z,427.00
2022-09-07T10:09:01.387Z,775.00
2022-09-07T10:10:01.378Z,769.00
2022-09-07T10:11:01.371Z,810.00
2022-09-07T10:12:08.949Z,846.00
2022-09-07T10:13:01.344Z,853.00
2022-09-07T10:14:01.352Z,858.00
2022-09-07T10:15:01.305Z,828.00
2022-09-07T10:16:01.341Z,797.00
2022-09-07T10:17:01.972Z,690.00
2022-09-07T10:18:01.271Z,882.00
2022-09-07T10:19:01.269Z,922.00
2022-09-07T10:20:01.265Z,1002.00
2022-09-07T10:21:01.235Z,978.00
2022-09-07T10:22:01.221Z,970.00
2022-09-07T10:23:01.217Z,941.00
2022-09-07T10:24:01.195Z,931.00
2022-09-07T10:25:01.188Z,955.00
2022-09-07T10:26:01.190Z,933.00
2022-09-07T10:27:01.162Z,865.00
2022-09-07T10:28:01.141Z,837.00
2022-09-07T10:29:08.734Z,829.00
2022-09-07T10:30:01.120Z,737.00
2022-09-07T10:31:01.167Z,628.00
2022-09-07T10:32:01.123Z,554.00
2022-09-07T10:33:01.089Z,524.00
2022-09-07T10:35:01.064Z,522.00
2022-09-07T10:36:01.048Z,536.00
2022-09-07T10:37:01.029Z,584.00
2022-09-07T10:38:01.037Z,646.00
2022-09-07T10:39:01.034Z,733.00
2022-09-07T10:40:01.020Z,767.00
2022-09-07T10:41:00.981Z,696.00
2022-09-07T10:42:00.970Z,618.00
2022-09-07T10:44:00.975Z,624.00
2022-09-07T10:45:00.940Z,654.00
2022-09-07T10:46:00.972Z,703.00
2022-09-07T10:47:00.979Z,739.00
2022-09-07T10:48:00.907Z,921.00
2022-09-07T10:49:00.873Z,1010.00
2022-09-07T10:51:09.832Z,983.00
2022-09-07T10:52:00.841Z,949.00
2022-09-07T10:53:04.072Z,973.00
2022-09-07T10:55:00.804Z,745.00
2022-09-07T10:56:00.816Z,748.00
2022-09-07T10:57:00.799Z,753.00
2022-09-07T10:58:00.789Z,772.00
2022-09-07T10:59:02.853Z,793.00
2022-09-07T11:00:08.751Z,802.00
2022-09-07T11:01:00.729Z,802.00
2022-09-07T11:02:00.721Z,801.00
2022-09-07T11:04:00.755Z,813.00
2022-09-07T11:05:00.671Z,797.00
2022-09-07T11:06:00.679Z,780.00
2022-09-07T11:07:00.647Z,775.00
2022-09-07T11:08:00.652Z,773.00
2022-09-07T11:09:17.239Z,769.00
2022-09-07T11:10:00.626Z,763.00
2022-09-07T11:11:00.598Z,747.00
2022-09-07T11:12:01.275Z,745.00
2022-09-07T11:13:00.575Z,736.00
2022-09-07T11:14:12.407Z,709.00
2022-09-07T11:15:00.553Z,680.00
2022-09-07T11:16:00.592Z,655.00
2022-09-07T11:17:01.073Z,664.00
2022-09-07T11:18:00.514Z,711.00
2022-09-07T11:20:00.500Z,733.00
2022-09-07T11:21:00.466Z,696.00
2022-09-07T11:22:00.622Z,662.00
2022-09-07T11:23:00.444Z,661.00
2022-09-07T11:24:00.426Z,691.00
2022-09-07T11:26:00.431Z,612.00
2022-09-07T11:27:00.462Z,549.00
2022-09-07T11:28:00.414Z,588.00
2022-09-07T11:30:00.368Z,659.00
2022-09-07T11:31:00.789Z,669.00
2022-09-07T11:32:00.360Z,644.00
2022-09-07T11:33:00.324Z,682.00
2022-09-07T11:35:00.307Z,627.00
2022-09-07T11:36:00.280Z,639.00
2022-09-07T11:37:00.267Z,683.00
2022-09-07T11:38:00.288Z,683.00
2022-09-07T11:39:00.244Z,657.00
2022-09-07T11:40:00.406Z,641.00
2022-09-07T11:41:00.217Z,676.00
2022-09-07T11:42:00.716Z,653.00
2022-09-07T11:43:00.189Z,653.00
2022-09-07T11:44:00.216Z,657.00
2022-09-07T11:45:00.193Z,663.00
2022-09-07T11:46:00.230Z,677.00
2022-09-07T11:47:00.146Z,676.00
2022-09-07T11:48:00.169Z,692.00
2022-09-07T11:49:00.137Z,732.00
2022-09-07T11:50:00.132Z,774.00
2022-09-07T11:51:00.094Z,774.00
2022-09-07T11:52:05.117Z,803.00
2022-09-07T11:53:00.097Z,784.00
2022-09-07T11:54:00.070Z,732.00
2022-09-07T11:55:00.163Z,713.00
2022-09-07T11:56:00.111Z,748.00
2022-09-07T11:57:00.014Z,796.00
2022-09-07T11:58:00.008Z,803.00
2022-09-07T11:59:00.001Z,796.00
2022-09-07T12:00:00.104Z,799.00
2022-09-07T12:00:59.998Z,801.00
2022-09-07T12:01:59.988Z,777.00
2022-09-07T12:03:00.978Z,775.00
2022-09-07T12:04:00.004Z,784.00
2022-09-07T12:04:59.961Z,878.00
2022-09-07T12:05:59.923Z,921.00
2022-09-07T12:06:59.903Z,952.00
2022-09-07T12:07:59.928Z,919.00
2022-09-07T12:08:59.871Z,943.00
2022-09-07T12:09:59.855Z,991.00
2022-09-07T12:10:59.916Z,956.00
2022-09-07T12:11:59.857Z,854.00
2022-09-07T12:12:59.836Z,747.00
2022-09-07T12:13:59.819Z,760.00
2022-09-07T12:14:59.940Z,773.00
2022-09-07T12:15:59.830Z,830.00
2022-09-07T12:16:59.831Z,910.00
2022-09-07T12:17:59.783Z,982.00
2022-09-07T12:18:59.753Z,1092.00
2022-09-07T12:19:59.771Z,1125.00
2022-09-07T12:20:59.733Z,1111.00
2022-09-07T12:21:59.731Z,1028.00
2022-09-07T12:23:04.266Z,943.00
2022-09-07T12:23:59.689Z,886.00
2022-09-07T12:24:59.681Z,820.00
2022-09-07T12:25:59.676Z,825.00
2022-09-07T12:26:59.648Z,895.00
2022-09-07T12:27:59.646Z,961.00
2022-09-07T12:28:59.627Z,1005.00
2022-09-07T12:29:59.626Z,1005.00
2022-09-07T12:30:59.662Z,942.00
2022-09-07T12:32:52.434Z,886.00
2022-09-07T12:32:59.686Z,832.00
2022-09-07T12:33:59.563Z,860.00
2022-09-07T12:34:59.567Z,961.00
2022-09-07T12:35:59.571Z,930.00
2022-09-07T12:36:59.522Z,855.00
2022-09-07T12:37:59.524Z,874.00
2022-09-07T12:38:59.497Z,955.00
2022-09-07T12:39:59.653Z,1016.00
2022-09-07T12:40:59.482Z,1059.00
2022-09-07T12:43:07.737Z,1065.00
2022-09-07T12:44:00.243Z,1042.00
2022-09-07T12:44:59.461Z,1037.00
2022-09-07T12:45:59.470Z,1070.00
2022-09-07T12:46:59.401Z,1096.00
2022-09-07T12:47:59.386Z,1144.00
2022-09-07T12:48:59.375Z,1142.00
2022-09-07T12:49:59.390Z,1088.00
2022-09-07T12:50:59.350Z,1021.00
2022-09-07T12:52:03.278Z,973.00
2022-09-07T12:52:59.329Z,931.00
2022-09-07T12:53:59.371Z,893.00
2022-09-07T12:55:23.584Z,835.00
2022-09-07T12:57:59.280Z,509.00
2022-09-07T12:58:59.252Z,433.00
2022-09-07T12:59:59.252Z,431.00
2022-09-07T13:00:59.268Z,469.00
2022-09-07T13:01:59.351Z,519.00
2022-09-07T13:02:59.198Z,614.00
2022-09-07T13:03:59.231Z,724.00
2022-09-07T13:04:59.251Z,842.00
2022-09-07T13:05:59.168Z,998.00
2022-09-07T13:07:06.687Z,1197.00
2022-09-07T13:08:07.222Z,1346.00
2022-09-07T13:08:59.137Z,1495.00
2022-09-07T13:09:59.113Z,1450.00
2022-09-07T13:10:59.110Z,1415.00
2022-09-07T13:11:59.102Z,1307.00
2022-09-07T13:12:59.100Z,1253.00
2022-09-07T13:14:04.834Z,1225.00
2022-09-07T13:14:59.050Z,1174.00
2022-09-07T13:15:59.061Z,1175.00
2022-09-07T13:17:59.029Z,1163.00
2022-09-07T13:18:58.996Z,1139.00
2022-09-07T13:19:59.001Z,1066.00
2022-09-07T13:20:58.972Z,970.00
2022-09-07T13:21:58.965Z,709.00
2022-09-07T13:22:58.950Z,611.00
2022-09-07T13:23:59.531Z,572.00
2022-09-07T13:24:58.919Z,525.00
2022-09-07T13:25:58.975Z,495.00
2022-09-07T13:26:58.894Z,525.00
2022-09-07T13:27:58.892Z,587.00
2022-09-07T13:28:58.872Z,624.00